Time;durP1;ratioP1;P1;durP2;ratioP2;P2;SDS_P1;SDS_P2;PMS_P1;PMS_P2;Temp;Humidity;BMP_temperature;BMP_pressure;BME280_temperature;BME280_humidity;BME280_pressure;Samples;Min_cycle;Max_cycle;Signal;HPM_P1;HPM_P2
2020/12/12 00:00:14;;;;;;;29.13;16.60;;;8.40;79.70;;;;;;5010890;28;20029;-71
2020/12/12 00:02:40;;;;;;;34.47;19.08;;;8.40;79.60;;;;;;5013084;28;20044;-72
2020/12/12 00:05:06;;;;;;;29.13;18.05;;;8.40;79.70;;;;;;5010976;28;20112;-73
2020/12/12 00:07:31;;;;;;;28.98;17.52;;;8.30;79.80;;;;;;5021439;28;20033;-72
2020/12/12 00:09:57;;;;;;;31.98;19.10;;;8.30;79.90;;;;;;5017014;28;20069;-71
2020/12/12 00:12:23;;;;;;;32.47;18.80;;;8.30;80.00;;;;;;5026864;28;20527;-72
2020/12/12 00:14:49;;;;;;;32.67;18.63;;;10.40;81.20;;;;;;5030052;28;20037;-72
2020/12/12 00:17:14;;;;;;;29.80;16.80;;;8.30;80.00;;;;;;5018988;28;20085;-72
2020/12/12 00:19:40;;;;;;;28.58;18.23;;;8.30;80.00;;;;;;5021879;28;20083;-72
2020/12/12 00:22:05;;;;;;;31.30;19.15;;;8.40;80.10;;;;;;5027529;28;20079;-72
2020/12/12 00:24:31;;;;;;;28.63;17.67;;;8.40;80.00;;;;;;5024364;28;20353;-72
2020/12/12 00:26:58;;;;;;;29.13;18.05;;;8.40;80.00;;;;;;5022156;28;20037;-71
2020/12/12 00:29:24;;;;;;;28.15;17.17;;;8.40;80.00;;;;;;5026229;28;20057;-72
2020/12/12 00:31:57;;;;;;;28.85;17.00;;;8.40;80.00;;;;;;5020186;28;20029;-72
2020/12/12 00:34:24;;;;;;;34.00;19.77;;;8.40;79.90;;;;;;5013043;28;20034;-72
2020/12/12 00:36:50;;;;;;;28.83;16.30;;;8.40;80.00;;;;;;5020521;28;20797;-72
2020/12/12 00:39:19;;;;;;;28.77;16.30;;;8.30;80.10;;;;;;5015210;28;20030;-72
2020/12/12 00:41:45;;;;;;;27.92;16.92;;;8.40;80.10;;;;;;5013383;28;20022;-73
2020/12/12 00:44:12;;;;;;;27.48;16.23;;;8.50;80.00;;;;;;5021527;28;20491;-73
2020/12/12 00:46:38;;;;;;;26.35;16.35;;;8.50;79.80;;;;;;5024730;28;20054;-73
2020/12/12 00:49:05;;;;;;;28.05;16.75;;;8.60;79.70;;;;;;5015763;28;20029;-72
2020/12/12 00:51:30;;;;;;;24.92;14.93;;;8.60;79.70;;;;;;5024689;28;20455;-72
2020/12/12 00:53:56;;;;;;;27.33;16.23;;;8.60;79.70;;;;;;5022359;28;20041;-72
2020/12/12 00:56:22;;;;;;;27.95;15.73;;;8.60;79.60;;;;;;5017281;28;20499;-72
2020/12/12 00:58:47;;;;;;;29.92;16.75;;;8.60;79.60;;;;;;5010540;28;20074;-73
2020/12/12 01:01:15;;;;;;;25.98;14.85;;;8.70;79.60;;;;;;5015969;28;20100;-72
2020/12/12 01:03:42;;;;;;;28.23;17.13;;;8.60;79.60;;;;;;5010937;28;20026;-73
2020/12/12 01:06:11;;;;;;;26.35;15.45;;;8.70;79.60;;;;;;5020731;28;20037;-74
2020/12/12 01:08:38;;;;;;;25.95;16.20;;;8.60;79.60;;;;;;5018335;28;20065;-73
2020/12/12 01:11:05;;;;;;;26.10;16.20;;;8.60;79.60;;;;;;5020482;28;20033;-72
2020/12/12 01:13:31;;;;;;;32.05;19.88;;;8.60;79.70;;;;;;5015744;28;20491;-73
2020/12/12 01:15:57;;;;;;;29.08;16.55;;;8.60;79.80;;;;;;5012891;28;20038;-74
2020/12/12 01:18:23;;;;;;;26.27;17.17;;;8.60;79.90;;;;;;5009700;28;20084;-73
2020/12/12 01:20:48;;;;;;;32.65;17.55;;;8.60;79.80;;;;;;5015713;28;20439;-73
2020/12/12 01:23:14;;;;;;;27.92;16.80;;;8.60;79.80;;;;;;5018425;28;20036;-72
2020/12/12 01:25:40;;;;;;;30.08;16.98;;;8.70;79.80;;;;;;5029503;28;20048;-73
2020/12/12 01:28:05;;;;;;;29.50;16.90;;;8.70;79.70;;;;;;5022374;28;20034;-72
2020/12/12 01:30:32;;;;;;;34.03;17.98;;;8.70;79.70;;;;;;5017118;28;20496;-72
2020/12/12 01:32:58;;;;;;;32.78;19.33;;;8.70;79.60;;;;;;5011329;28;20034;-73
2020/12/12 01:35:24;;;;;;;30.80;17.80;;;8.70;79.60;;;;;;5012566;28;20091;-72
2020/12/12 01:37:50;;;;;;;33.30;19.27;;;8.70;79.60;;;;;;5022771;28;20041;-72
2020/12/12 01:40:15;;;;;;;32.40;19.40;;;8.60;79.70;;;;;;5015620;28;20095;-72
2020/12/12 01:42:41;;;;;;;32.20;17.65;;;8.60;79.80;;;;;;5016124;28;20429;-72
2020/12/12 01:45:08;;;;;;;30.55;17.38;;;8.70;79.80;;;;;;5021875;28;20761;-72
2020/12/12 01:47:35;;;;;;;30.55;17.83;;;8.70;79.70;;;;;;5011302;28;20042;-72
2020/12/12 01:50:01;;;;;;;30.15;18.65;;;8.70;79.60;;;;;;5011547;28;20459;-72
2020/12/12 01:52:27;;;;;;;32.45;18.13;;;8.80;79.60;;;;;;5017711;28;20060;-72
2020/12/12 01:54:53;;;;;;;30.75;18.05;;;8.80;79.60;;;;;;5025874;28;20432;-72
2020/12/12 01:57:22;;;;;;;31.42;18.77;;;8.80;79.50;;;;;;5025564;28;20106;-73
2020/12/12 01:59:50;;;;;;;30.77;18.35;;;8.80;79.40;;;;;;5026371;28;20030;-72
2020/12/12 02:02:17;;;;;;;30.88;18.05;;;8.80;79.50;;;;;;5024394;28;20060;-72
2020/12/12 02:04:54;;;;;;;30.05;17.20;;;8.80;79.50;;;;;;5029662;28;20032;-73
2020/12/12 02:07:22;;;;;;;31.20;18.13;;;8.80;79.50;;;;;;5024370;28;20794;-73
2020/12/12 02:09:48;;;;;;;35.40;19.63;;;8.80;79.50;;;;;;5020009;28;20456;-73
2020/12/12 02:12:15;;;;;;;35.28;21.35;;;8.80;79.50;;;;;;5025598;28;20033;-72
2020/12/12 02:14:41;;;;;;;33.90;18.80;;;8.80;79.60;;;;;;5024043;28;20037;-73
2020/12/12 02:17:08;;;;;;;33.17;20.77;;;8.70;79.50;;;;;;5009819;28;20448;-72
2020/12/12 02:19:34;;;;;;;37.67;21.42;;;8.70;79.60;;;;;;5024907;28;20059;-72
2020/12/12 02:22:01;;;;;;;35.08;21.08;;;8.70;79.70;;;;;;5026076;28;20030;-72
2020/12/12 02:24:33;;;;;;;31.85;19.30;;;8.70;79.80;;;;;;5011325;28;20121;-73
2020/12/12 02:27:04;;;;;;;35.38;21.65;;;8.70;79.80;;;;;;5019807;28;20527;-73
2020/12/12 02:29:45;;;;;;;34.40;20.42;;;8.70;79.80;;;;;;5013884;28;20041;-72
2020/12/12 02:32:10;;;;;;;31.75;18.90;;;8.80;79.80;;;;;;5016269;28;20076;-72
2020/12/12 02:34:36;;;;;;;32.38;21.08;;;8.80;79.60;;;;;;5011772;28;20033;-73
2020/12/12 02:37:02;;;;;;;33.47;18.42;;;8.90;79.60;;;;;;5012252;28;20130;-72
2020/12/12 02:39:27;;;;;;;31.75;19.05;;;8.90;79.50;;;;;;5016567;28;20040;-72
2020/12/12 02:41:53;;;;;;;30.58;19.55;;;8.90;79.40;;;;;;5023788;28;20426;-73
2020/12/12 02:44:19;;;;;;;28.52;17.42;;;8.90;79.30;;;;;;5012293;28;20387;-72
2020/12/12 02:46:44;;;;;;;29.90;18.38;;;9.00;79.20;;;;;;5011353;28;20038;-72
2020/12/12 02:49:10;;;;;;;29.50;17.83;;;8.90;79.20;;;;;;5016234;28;20362;-72
2020/12/12 02:51:44;;;;;;;30.80;18.20;;;8.90;79.20;;;;;;5017473;28;20030;-72
2020/12/12 02:54:10;;;;;;;33.97;20.83;;;9.00;79.20;;;;;;5017518;28;20352;-72
2020/12/12 02:56:36;;;;;;;32.28;18.98;;;8.90;79.20;;;;;;5021669;28;20041;-72
2020/12/12 02:59:02;;;;;;;31.42;18.20;;;8.90;79.30;;;;;;5019496;28;20105;-72
2020/12/12 03:01:28;;;;;;;29.10;16.85;;;9.00;79.30;;;;;;5027376;28;20038;-73
2020/12/12 03:03:54;;;;;;;29.17;18.67;;;9.00;79.30;;;;;;5028969;28;20087;-73
2020/12/12 03:06:20;;;;;;;36.28;20.10;;;9.00;79.20;;;;;;5016358;28;20104;-72
2020/12/12 03:08:45;;;;;;;28.42;17.67;;;9.00;79.20;;;;;;5029689;28;20061;-72
2020/12/12 03:11:11;;;;;;;28.83;16.70;;;9.00;79.30;;;;;;5020439;28;20376;-72
2020/12/12 03:13:37;;;;;;;36.80;19.38;;;9.00;79.20;;;;;;5017556;28;20029;-72
2020/12/12 03:16:02;;;;;;;30.33;16.27;;;9.00;79.20;;;;;;5026311;28;20061;-72
2020/12/12 03:18:28;;;;;;;27.95;16.88;;;9.00;79.30;;;;;;5024653;28;20190;-72
2020/12/12 03:20:53;;;;;;;28.52;16.95;;;9.00;79.30;;;;;;5024639;28;20030;-74
2020/12/12 03:23:19;;;;;;;35.20;21.70;;;9.10;79.30;;;;;;5025146;28;20481;-72
2020/12/12 03:25:45;;;;;;;30.40;18.90;;;9.00;79.20;;;;;;5032805;28;20048;-72
2020/12/12 03:28:10;;;;;;;32.72;18.17;;;9.00;79.20;;;;;;5017641;28;20435;-73
2020/12/12 03:30:36;;;;;;;34.00;19.92;;;9.00;79.20;;;;;;5020348;28;20042;-73
2020/12/12 03:33:03;;;;;;;28.65;18.05;;;9.00;79.20;;;;;;5022838;28;20037;-73
2020/12/12 03:35:28;;;;;;;31.83;18.50;;;9.00;79.20;;;;;;5012047;28;20022;-73
2020/12/12 03:37:55;;;;;;;30.65;18.88;;;9.00;79.30;;;;;;5012978;28;20057;-72
2020/12/12 03:40:23;;;;;;;34.08;20.05;;;9.00;79.40;;;;;;5020083;28;20119;-72
2020/12/12 03:42:52;;;;;;;32.97;19.58;;;9.00;79.40;;;;;;5014100;28;20456;-72
2020/12/12 03:45:20;;;;;;;30.05;18.52;;;9.10;79.50;;;;;;5029887;28;20037;-72
2020/12/12 03:47:46;;;;;;;31.42;16.88;;;9.10;79.40;;;;;;5017360;28;20120;-73
2020/12/12 03:50:13;;;;;;;29.23;17.85;;;9.10;79.30;;;;;;5010637;28;20026;-72
2020/12/12 03:52:38;;;;;;;30.08;17.95;;;9.10;79.20;;;;;;5024325;28;20449;-71
2020/12/12 03:55:04;;;;;;;28.92;17.17;;;9.20;79.20;;;;;;5017659;28;20112;-72
2020/12/12 03:57:30;;;;;;;30.08;19.20;;;9.20;79.10;;;;;;5013720;28;20407;-73
2020/12/12 03:59:55;;;;;;;30.33;17.58;;;9.20;79.20;;;;;;5021776;28;20034;-72
2020/12/12 04:02:21;;;;;;;36.47;19.90;;;9.10;79.20;;;;;;5011495;28;20476;-72
2020/12/12 04:04:47;;;;;;;30.23;18.23;;;9.10;79.30;;;;;;5012134;28;20065;-72
2020/12/12 04:07:12;;;;;;;32.22;19.50;;;9.10;79.40;;;;;;5025436;28;20053;-72
2020/12/12 04:09:38;;;;;;;30.42;17.08;;;9.10;79.40;;;;;;5017956;28;20061;-72
2020/12/12 04:12:04;;;;;;;30.20;17.92;;;9.10;79.40;;;;;;5018432;28;20036;-72
2020/12/12 04:14:29;;;;;;;30.15;19.30;;;9.10;79.30;;;;;;5030621;28;20167;-72
2020/12/12 04:16:55;;;;;;;29.77;17.85;;;9.20;79.20;;;;;;5026747;28;20549;-72
2020/12/12 04:19:21;;;;;;;29.88;17.45;;;9.20;79.20;;;;;;5016700;28;20038;-72
2020/12/12 04:21:46;;;;;;;29.45;19.30;;;9.20;79.20;;;;;;5015777;28;20038;-73
2020/12/12 04:24:12;;;;;;;29.75;20.65;;;9.20;79.10;;;;;;5026447;28;20471;-72
2020/12/12 04:26:38;;;;;;;32.70;19.70;;;9.20;79.10;;;;;;5031842;28;20463;-72
2020/12/12 04:29:04;;;;;;;35.80;20.25;;;9.20;79.10;;;;;;5014434;28;20136;-72
2020/12/12 04:31:29;;;;;;;28.73;17.88;;;9.20;79.20;;;;;;5039613;28;20094;-72
2020/12/12 04:33:55;;;;;;;31.38;18.00;;;9.20;79.20;;;;;;5034383;28;20033;-73
2020/12/12 04:36:21;;;;;;;28.20;18.05;;;9.20;79.20;;;;;;5012077;28;20121;-72
2020/12/12 04:38:48;;;;;;;29.30;18.20;;;9.20;79.20;;;;;;5021146;28;20034;-72
2020/12/12 04:41:15;;;;;;;27.10;17.55;;;9.20;79.10;;;;;;5015025;28;20049;-72
2020/12/12 04:43:41;;;;;;;30.27;18.00;;;9.20;79.10;;;;;;4994282;28;20482;-72
2020/12/12 04:46:07;;;;;;;28.73;18.10;;;9.30;79.10;;;;;;5018746;28;20064;-73
2020/12/12 04:48:33;;;;;;;31.60;17.95;;;9.30;79.10;;;;;;5027915;28;20065;-72
2020/12/12 04:51:00;;;;;;;30.48;18.45;;;9.20;79.10;;;;;;5010822;28;20056;-73
2020/12/12 04:53:26;;;;;;;36.10;19.33;;;9.20;79.10;;;;;;5016143;28;20103;-72
2020/12/12 04:55:54;;;;;;;30.35;19.45;;;9.30;79.20;;;;;;5012837;28;20022;-73
2020/12/12 04:58:23;;;;;;;30.83;19.30;;;9.20;79.10;;;;;;5016167;28;20038;-73
2020/12/12 05:00:50;;;;;;;30.98;18.23;;;9.20;79.10;;;;;;5017285;28;20036;-73
2020/12/12 05:03:17;;;;;;;35.45;21.98;;;9.30;79.00;;;;;;5030665;28;20036;-72
2020/12/12 05:05:44;;;;;;;31.98;18.77;;;9.30;79.00;;;;;;5027314;28;20099;-72
2020/12/12 05:08:10;;;;;;;27.75;16.50;;;9.30;79.10;;;;;;5026275;28;20041;-72
2020/12/12 05:10:41;;;;;;;31.60;18.08;;;9.30;79.10;;;;;;5027352;28;20057;-73
2020/12/12 05:13:30;;;;;;;27.88;16.40;;;9.30;78.90;;;;;;5012230;28;20423;-72
2020/12/12 05:15:57;;;;;;;29.27;19.58;;;9.40;78.90;;;;;;5022767;28;20464;-73
2020/12/12 05:18:24;;;;;;;29.77;18.58;;;9.40;78.90;;;;;;5022333;28;20065;-72
2020/12/12 05:20:50;;;;;;;31.20;18.67;;;9.50;79.50;;;;;;5023172;28;20030;-72
2020/12/12 05:23:20;;;;;;;34.22;19.00;;;9.40;78.90;;;;;;5023097;28;20033;-72
2020/12/12 05:25:47;;;;;;;30.92;18.60;;;9.40;78.90;;;;;;5029711;28;20040;-72
2020/12/12 05:28:14;;;;;;;28.25;17.10;;;9.40;78.90;;;;;;5029065;28;20033;-72
2020/12/12 05:30:45;;;;;;;30.08;19.02;;;9.40;78.90;;;;;;5021662;28;20128;-73
2020/12/12 05:33:13;;;;;;;26.23;16.20;;;9.40;78.90;;;;;;5011419;28;20080;-73
2020/12/12 05:35:39;;;;;;;26.98;17.48;;;9.40;78.90;;;;;;5016909;28;20026;-72
2020/12/12 05:38:07;;;;;;;27.30;16.70;;;9.40;78.90;;;;;;5029827;28;20095;-73
2020/12/12 05:40:37;;;;;;;33.22;18.98;;;9.40;79.00;;;;;;5028615;28;20057;-72
2020/12/12 05:43:05;;;;;;;29.67;18.05;;;9.40;79.10;;;;;;5029141;28;20040;-73
2020/12/12 05:45:30;;;;;;;27.15;16.38;;;9.40;79.10;;;;;;5028890;28;20081;-73
2020/12/12 05:47:57;;;;;;;29.23;18.70;;;9.40;79.10;;;;;;5029516;28;20029;-72
2020/12/12 05:50:23;;;;;;;27.00;15.30;;;9.40;79.10;;;;;;5025290;28;20037;-72
2020/12/12 05:52:53;;;;;;;28.20;18.50;;;9.40;79.10;;;;;;5009604;28;20029;-72
2020/12/12 05:55:21;;;;;;;28.52;17.42;;;9.50;79.00;;;;;;5027631;28;20108;-72
2020/12/12 05:57:48;;;;;;;27.58;16.35;;;9.50;78.90;;;;;;5017369;28;20460;-72
2020/12/12 06:00:13;;;;;;;29.85;17.98;;;9.50;78.80;;;;;;5012795;28;20029;-72
2020/12/12 06:02:45;;;;;;;28.13;17.23;;;9.60;78.70;;;;;;5029129;28;20040;-72
2020/12/12 06:05:17;;;;;;;27.15;17.90;;;9.60;78.70;;;;;;5028753;28;20052;-72
2020/12/12 06:07:51;;;;;;;31.67;17.90;;;9.60;78.60;;;;;;5022323;28;20400;-74
2020/12/12 06:10:18;;;;;;;30.00;17.63;;;9.50;78.60;;;;;;5013056;28;20056;-73
2020/12/12 06:12:47;;;;;;;26.17;16.85;;;9.50;78.70;;;;;;5012307;28;20095;-74
2020/12/12 06:15:18;;;;;;;25.60;16.30;;;9.60;78.70;;;;;;5012004;28;20054;-73
2020/12/12 06:18:08;;;;;;;27.10;17.67;;;9.60;78.70;;;;;;5028103;28;20554;-73
2020/12/12 06:20:37;;;;;;;29.02;18.15;;;9.60;78.60;;;;;;5030016;28;20033;-74
2020/12/12 06:23:06;;;;;;;29.17;17.80;;;9.50;78.70;;;;;;5029911;28;20030;-74
2020/12/12 06:25:31;;;;;;;25.23;16.20;;;9.50;79.00;;;;;;5028493;28;20041;-73
2020/12/12 06:27:57;;;;;;;26.40;17.23;;;9.50;79.00;;;;;;5029509;28;20041;-73
2020/12/12 06:30:25;;;;;;;26.67;16.77;;;9.60;79.00;;;;;;5029560;28;20061;-74
2020/12/12 06:33:01;;;;;;;30.10;17.85;;;9.60;78.80;;;;;;5028892;28;20030;-74
2020/12/12 06:35:34;;;;;;;29.30;16.42;;;9.60;78.70;;;;;;5027254;28;20049;-74
2020/12/12 06:38:20;;;;;;;28.90;17.92;;;9.60;78.70;;;;;;5029070;28;20135;-74
2020/12/12 06:40:46;;;;;;;26.55;16.52;;;9.60;78.70;;;;;;5018836;28;20048;-74
2020/12/12 06:43:54;;;;;;;30.92;19.00;;;9.70;78.70;;;;;;5034043;28;20037;-74
2020/12/12 06:46:19;;;;;;;26.95;15.90;;;9.70;78.60;;;;;;4993463;28;20052;-73
2020/12/12 06:48:45;;;;;;;27.20;16.20;;;9.70;78.60;;;;;;5013978;28;20034;-74
2020/12/12 06:51:10;;;;;;;25.85;15.15;;;9.70;78.60;;;;;;5024461;28;20030;-74
2020/12/12 06:53:36;;;;;;;34.60;19.77;;;9.80;78.60;;;;;;5015403;28;20421;-74
2020/12/12 06:56:10;;;;;;;30.75;17.42;;;9.80;78.60;;;;;;5019714;28;20030;-74
2020/12/12 06:58:37;;;;;;;25.85;16.30;;;9.70;78.50;;;;;;5032989;28;20029;-75
2020/12/12 07:01:26;;;;;;;34.45;19.60;;;9.80;78.60;;;;;;5031318;28;20045;-74
2020/12/12 07:04:03;;;;;;;29.92;17.88;;;9.80;78.50;;;;;;5025147;28;20427;-74
2020/12/12 07:06:30;;;;;;;30.52;17.15;;;9.80;78.50;;;;;;5017030;28;20594;-74
2020/12/12 07:09:05;;;;;;;25.52;15.35;;;9.80;78.60;;;;;;5029178;28;20056;-74
2020/12/12 07:11:31;;;;;;;25.38;14.93;;;9.80;78.50;;;;;;5021175;28;20053;-74
2020/12/12 07:13:58;;;;;;;29.67;18.40;;;9.80;78.50;;;;;;5015699;28;20034;-74
2020/12/12 07:16:25;;;;;;;32.45;15.48;;;9.80;78.60;;;;;;4997615;28;20783;-74
2020/12/12 07:18:51;;;;;;;29.45;16.10;;;9.80;78.80;;;;;;5032175;28;20679;-74
2020/12/12 07:21:18;;;;;;;29.63;15.85;;;9.80;78.90;;;;;;5028071;28;20074;-75
2020/12/12 07:23:45;;;;;;;31.40;16.75;;;9.80;79.00;;;;;;5017636;28;20022;-74
2020/12/12 07:26:11;;;;;;;25.50;16.10;;;9.80;79.10;;;;;;5029409;28;20025;-74
2020/12/12 07:28:37;;;;;;;30.25;16.50;;;9.80;79.20;;;;;;5018508;28;20079;-74
2020/12/12 07:31:03;;;;;;;28.00;15.77;;;9.80;79.30;;;;;;5032213;28;20041;-74
2020/12/12 07:33:29;;;;;;;30.10;15.82;;;9.80;79.30;;;;;;5021868;28;20018;-75
2020/12/12 07:35:55;;;;;;;30.27;14.95;;;9.80;79.30;;;;;;5016391;28;20048;-75
2020/12/12 07:38:21;;;;;;;29.88;16.58;;;9.80;79.20;;;;;;5038827;28;20037;-74
2020/12/12 07:40:47;;;;;;;30.45;18.55;;;9.90;79.20;;;;;;5020550;28;20111;-74
2020/12/12 07:43:13;;;;;;;36.33;18.42;;;9.90;79.10;;;;;;5023548;28;20368;-75
2020/12/12 07:45:54;;;;;;;31.70;16.83;;;9.90;79.10;;;;;;5018986;28;20239;-74
2020/12/12 07:48:20;;;;;;;38.03;17.70;;;9.90;79.10;;;;;;5017295;28;20038;-74
2020/12/12 07:50:46;;;;;;;31.60;17.25;;;9.90;79.20;;;;;;5022785;28;20123;-74
2020/12/12 07:53:14;;;;;;;33.13;18.05;;;9.90;79.20;;;;;;5020460;28;20118;-74
2020/12/12 07:55:45;;;;;;;32.58;15.88;;;9.90;79.20;;;;;;5014305;28;20475;-74
2020/12/12 07:58:17;;;;;;;31.02;16.70;;;9.90;79.10;;;;;;5029577;28;20026;-71
2020/12/12 08:00:43;;;;;;;34.47;18.33;;;11.50;80.20;;;;;;5012764;28;20108;-71
2020/12/12 08:03:09;;;;;;;34.25;16.85;;;9.90;79.40;;;;;;5024974;28;20030;-71
2020/12/12 08:05:35;;;;;;;39.05;18.73;;;9.90;79.40;;;;;;5015492;28;20034;-72
2020/12/12 08:08:10;;;;;;;34.88;17.95;;;9.90;79.50;;;;;;5012026;28;20152;-74
2020/12/12 08:10:36;;;;;;;45.33;18.25;;;9.80;79.60;;;;;;5011928;28;20483;-75
2020/12/12 08:13:02;;;;;;;36.47;18.55;;;9.80;79.70;;;;;;5027443;28;20041;-74
2020/12/12 08:15:42;;;;;;;42.22;22.73;;;9.90;79.80;;;;;;5021166;28;20100;-72
2020/12/12 08:18:14;;;;;;;47.85;22.52;;;9.90;79.70;;;;;;5030105;28;20048;-74
2020/12/12 08:20:40;;;;;;;40.42;19.90;;;9.80;79.90;;;;;;5029966;28;20091;-73
2020/12/12 08:23:10;;;;;;;47.17;23.10;;;9.80;80.10;;;;;;5030464;28;20048;-74
2020/12/12 08:25:36;;;;;;;48.95;22.92;;;9.80;80.30;;;;;;5025138;28;20030;-73
2020/12/12 08:28:06;;;;;;;48.08;21.52;;;9.80;80.30;;;;;;5015425;28;20034;-73
2020/12/12 08:30:32;;;;;;;38.33;20.13;;;9.80;80.30;;;;;;5028534;28;20111;-74
2020/12/12 08:33:08;;;;;;;44.80;21.80;;;9.80;80.30;;;;;;5025710;28;20116;-74
2020/12/12 08:35:34;;;;;;;48.40;22.90;;;9.80;80.40;;;;;;5010635;28;20219;-74
2020/12/12 08:38:05;;;;;;;55.50;23.48;;;9.80;80.50;;;;;;5024030;28;20224;-73
2020/12/12 08:40:43;;;;;;;41.45;21.38;;;9.80;80.60;;;;;;5016273;28;20026;-74
2020/12/12 08:43:10;;;;;;;40.58;21.42;;;9.80;80.60;;;;;;5022057;28;20033;-73
2020/12/12 08:45:37;;;;;;;45.08;21.63;;;9.90;80.60;;;;;;5015841;28;20052;-73
2020/12/12 08:48:08;;;;;;;44.72;22.77;;;9.90;80.50;;;;;;5010805;28;20092;-74
2020/12/12 08:50:43;;;;;;;53.30;24.52;;;9.90;80.30;;;;;;5013285;28;20053;-74
2020/12/12 08:53:30;;;;;;;61.10;25.35;;;10.00;80.30;;;;;;5022199;28;20037;-74
2020/12/12 08:56:06;;;;;;;48.22;21.70;;;9.90;80.30;;;;;;5020781;28;20049;-73
2020/12/12 08:58:43;;;;;;;59.38;23.70;;;10.00;80.50;;;;;;5011346;28;20033;-73
2020/12/12 09:01:13;;;;;;;49.65;23.98;;;10.00;80.60;;;;;;5013056;28;20030;-73
2020/12/12 09:03:58;;;;;;;51.42;21.73;;;10.00;80.60;;;;;;5019547;28;20029;-73
2020/12/12 09:06:26;;;;;;;48.33;23.58;;;10.00;80.60;;;;;;5014010;28;20120;-73
2020/12/12 09:09:16;;;;;;;51.58;24.95;;;10.00;80.50;;;;;;5015182;28;20054;-73
2020/12/12 09:11:53;;;;;;;52.97;23.83;;;10.10;80.40;;;;;;5024792;28;20047;-72
2020/12/12 09:14:19;;;;;;;48.58;22.60;;;10.10;80.40;;;;;;5017342;28;20026;-73
2020/12/12 09:16:49;;;;;;;49.88;24.58;;;10.10;80.40;;;;;;5009601;28;20447;-73
2020/12/12 09:19:15;;;;;;;53.22;24.13;;;10.10;80.50;;;;;;5019449;28;20037;-73
2020/12/12 09:21:41;;;;;;;59.95;28.10;;;10.10;80.50;;;;;;5017524;28;20041;-73
2020/12/12 09:24:06;;;;;;;47.50;22.98;;;10.10;80.50;;;;;;5028646;28;20167;-73
2020/12/12 09:26:32;;;;;;;54.47;25.58;;;10.10;80.60;;;;;;5020403;28;20434;-75
2020/12/12 09:28:58;;;;;;;59.33;28.35;;;10.10;80.50;;;;;;5015209;28;20046;-75
2020/12/12 09:31:24;;;;;;;66.65;30.20;;;10.10;80.60;;;;;;5022983;28;20037;-76
2020/12/12 09:33:50;;;;;;;79.40;29.50;;;10.10;80.60;;;;;;5016002;28;20415;-76
2020/12/12 09:36:16;;;;;;;69.68;29.35;;;10.10;80.60;;;;;;5008654;28;20041;-75
2020/12/12 09:38:42;;;;;;;64.65;27.23;;;10.10;80.70;;;;;;5026280;28;20049;-75
2020/12/12 09:41:07;;;;;;;62.17;26.67;;;10.20;80.80;;;;;;5024115;28;20610;-75
2020/12/12 09:43:33;;;;;;;60.40;26.98;;;10.20;80.70;;;;;;5008890;28;20120;-74
2020/12/12 09:45:59;;;;;;;61.45;27.13;;;10.20;80.70;;;;;;5022915;28;20040;-76
2020/12/12 09:48:25;;;;;;;48.95;25.77;;;10.20;80.70;;;;;;5025464;28;20429;-76
2020/12/12 09:50:51;;;;;;;52.03;22.98;;;10.30;80.70;;;;;;5012992;28;20033;-75
2020/12/12 09:53:16;;;;;;;61.90;25.92;;;10.30;80.60;;;;;;5024557;28;20036;-75
2020/12/12 09:55:43;;;;;;;55.80;25.73;;;10.30;80.60;;;;;;5018901;28;20053;-75
2020/12/12 09:58:09;;;;;;;59.67;26.95;;;10.30;80.50;;;;;;5014826;28;20044;-76
2020/12/12 10:00:39;;;;;;;50.13;22.10;;;10.30;80.60;;;;;;5012202;28;20476;-75
2020/12/12 10:03:05;;;;;;;51.63;24.35;;;10.40;80.70;;;;;;5019436;28;20727;-77
2020/12/12 10:05:33;;;;;;;55.75;22.83;;;10.40;80.60;;;;;;5028762;28;20105;-76
2020/12/12 10:07:59;;;;;;;80.20;30.77;;;10.40;80.70;;;;;;5030682;28;20522;-76
2020/12/12 10:10:26;;;;;;;73.35;29.40;;;10.40;80.60;;;;;;5030050;28;20048;-75
2020/12/12 10:12:52;;;;;;;62.85;27.95;;;10.30;80.70;;;;;;5031326;28;20057;-75
2020/12/12 10:15:18;;;;;;;49.25;27.35;;;10.30;80.80;;;;;;5030744;28;20029;-75
2020/12/12 10:17:45;;;;;;;57.70;28.92;;;10.40;80.80;;;;;;5034725;28;20052;-75
2020/12/12 10:20:11;;;;;;;65.47;29.38;;;10.40;80.70;;;;;;5035202;28;20120;-75
2020/12/12 10:22:37;;;;;;;60.03;27.23;;;10.40;80.80;;;;;;5035129;28;20448;-75
2020/12/12 10:25:03;;;;;;;59.67;27.63;;;10.40;80.90;;;;;;5031155;28;20075;-76
2020/12/12 10:27:29;;;;;;;67.43;26.17;;;10.50;80.80;;;;;;5035079;28;20098;-76
2020/12/12 10:29:54;;;;;;;55.80;25.35;;;10.50;80.70;;;;;;5032018;28;20053;-75
2020/12/12 10:32:20;;;;;;;59.35;23.30;;;10.60;80.70;;;;;;5035218;28;20428;-75
2020/12/12 10:34:45;;;;;;;57.60;24.25;;;10.60;80.50;;;;;;5033303;28;20040;-76
2020/12/12 10:37:11;;;;;;;66.03;27.10;;;10.70;80.40;;;;;;5034686;28;20423;-75
2020/12/12 10:39:43;;;;;;;62.25;26.60;;;10.60;80.30;;;;;;5033964;28;20037;-74
2020/12/12 10:42:09;;;;;;;69.28;29.83;;;10.70;80.40;;;;;;5032277;28;20045;-75
2020/12/12 10:44:34;;;;;;;71.15;29.00;;;10.70;80.40;;;;;;5045283;28;20030;-75
2020/12/12 10:47:00;;;;;;;69.97;29.75;;;10.60;80.50;;;;;;5032704;28;20410;-75
2020/12/12 10:49:25;;;;;;;58.70;28.42;;;10.60;80.70;;;;;;5018212;28;20102;-75
2020/12/12 10:51:55;;;;;;;58.50;25.45;;;10.60;80.90;;;;;;5012716;28;20104;-75
2020/12/12 10:54:25;;;;;;;53.42;24.85;;;10.70;80.90;;;;;;5014622;28;20475;-75
2020/12/12 10:56:51;;;;;;;65.00;25.77;;;10.70;80.60;;;;;;5014342;28;20025;-79
2020/12/12 10:59:16;;;;;;;60.17;26.40;;;10.80;80.60;;;;;;4996748;28;20480;-76
2020/12/12 11:01:42;;;;;;;49.17;23.58;;;10.80;80.40;;;;;;5028941;28;20057;-75
2020/12/12 11:04:08;;;;;;;61.58;26.77;;;10.80;80.30;;;;;;5033599;28;20407;-75
2020/12/12 11:06:33;;;;;;;53.30;24.83;;;10.90;80.30;;;;;;5019608;28;20092;-76
2020/12/12 11:09:00;;;;;;;55.80;26.50;;;10.90;80.30;;;;;;5016514;28;20104;-76
2020/12/12 11:11:26;;;;;;;69.20;26.48;;;10.90;80.20;;;;;;5015950;28;20033;-76
2020/12/12 11:13:52;;;;;;;65.22;26.77;;;10.90;80.30;;;;;;5034869;28;20025;-76
2020/12/12 11:16:19;;;;;;;75.63;29.73;;;13.00;81.50;;;;;;5033276;28;20109;-76
2020/12/12 11:18:48;;;;;;;70.03;27.48;;;10.90;80.40;;;;;;5033690;28;20063;-76
2020/12/12 11:21:17;;;;;;;84.32;29.90;;;10.90;80.40;;;;;;5031392;28;20025;-74
2020/12/12 11:23:42;;;;;;;59.25;28.23;;;10.90;80.40;;;;;;5013963;28;20018;-73
2020/12/12 11:26:08;;;;;;;66.28;27.73;;;11.00;80.40;;;;;;5012497;28;20483;-74
2020/12/12 11:28:34;;;;;;;73.53;30.15;;;11.00;80.20;;;;;;5020605;28;20057;-79
2020/12/12 11:30:59;;;;;;;58.25;27.05;;;11.10;80.30;;;;;;4998596;28;20060;-75
2020/12/12 11:33:25;;;;;;;62.35;29.38;;;11.10;80.20;;;;;;5029296;28;20526;-80
2020/12/12 11:36:04;;;;;;;64.75;25.00;;;11.10;80.30;;;;;;5012106;28;20112;-78
2020/12/12 11:48:49;;;;;;;53.83;26.00;;;11.30;80.00;;;;;;5025890;28;20057;-78
2020/12/12 11:51:15;;;;;;;54.42;26.38;;;11.30;79.90;;;;;;5013085;28;20110;-77
2020/12/12 11:53:41;;;;;;;54.72;25.40;;;11.20;80.10;;;;;;5025184;28;20156;-80
2020/12/12 11:56:07;;;;;;;57.50;26.50;;;11.10;80.30;;;;;;5025185;28;20083;-79
2020/12/12 11:58:33;;;;;;;51.70;25.80;;;11.00;80.50;;;;;;5030291;28;20064;-77
2020/12/12 12:00:59;;;;;;;56.67;24.63;;;11.00;80.70;;;;;;5028914;28;20483;-80
2020/12/12 12:03:25;;;;;;;51.20;24.35;;;11.00;80.80;;;;;;5034221;28;20089;-78
2020/12/12 12:05:52;;;;;;;48.60;25.10;;;11.00;80.80;;;;;;5033003;28;20109;-76
2020/12/12 12:08:38;;;;;;;53.42;23.77;;;11.00;80.80;;;;;;5025368;28;20034;-75
2020/12/12 12:13:42;;;;;;;45.53;21.70;;;11.20;80.60;;;;;;5016443;28;20100;-76
2020/12/12 12:16:08;;;;;;;41.85;20.27;;;11.20;80.50;;;;;;5017945;28;20033;-74
2020/12/12 12:18:34;;;;;;;45.38;22.10;;;11.30;80.50;;;;;;5021360;28;20029;-75
2020/12/12 12:21:01;;;;;;;50.90;23.90;;;11.30;80.30;;;;;;5019517;28;20061;-73
2020/12/12 12:23:27;;;;;;;53.25;23.95;;;11.30;80.40;;;;;;5004008;28;20026;-73
2020/12/12 12:25:54;;;;;;;71.43;22.98;;;11.30;80.30;;;;;;5022562;28;20038;-72
2020/12/12 12:28:20;;;;;;;50.35;23.25;;;11.40;80.30;;;;;;5022822;28;20041;-74
2020/12/12 12:30:49;;;;;;;43.20;21.00;;;11.40;80.30;;;;;;5020123;28;20518;-74
2020/12/12 12:33:15;;;;;;;50.05;23.90;;;11.40;80.20;;;;;;5024333;28;20136;-74
2020/12/12 12:35:40;;;;;;;58.22;25.55;;;11.40;80.20;;;;;;4991106;28;20526;-75
2020/12/12 12:38:06;;;;;;;40.38;21.50;;;11.50;80.20;;;;;;5025137;28;20053;-74
2020/12/12 12:40:32;;;;;;;42.20;21.40;;;11.50;80.10;;;;;;5022694;28;20121;-75
2020/12/12 12:42:58;;;;;;;53.35;24.23;;;11.50;79.90;;;;;;5024616;28;20120;-74
2020/12/12 12:45:24;;;;;;;47.35;25.08;;;11.60;79.90;;;;;;5026184;28;20021;-74
2020/12/12 12:47:50;;;;;;;45.10;22.33;;;11.50;80.00;;;;;;5020436;28;20065;-75